Dean International
Flight School

Career Spotlight

Mika

Mika

Congratulations to Mika from Khazakstan. She recently sent us this photo of her flying an Airbus airliner.

More...
Mika's Success Story
close

Congratulations to Mika from Khazakstan. She recently sent us this photo of her flying an Airbus airliner.

Mario

Mario

My dreams could not have been realized if I wouldn't have been part of the Dean International family.

More...
Mario's Success Story
close

"My dreams could not have been realized if I wouldn't have been part of the Dean International family. Thank you Robert, thanks to all my co-workers, and thanks to all of my students!"

Fernando

Fernando

I am now working as a First Officer at TACA and am enjoying every moment of it.

More...
Fernando's Success Story
close

"Will never forget my time of flight training at Dean International. I am now working as a First Officer at TACA and am enjoying every moment of it."

Alvaro

Alvaro

Because of the flight time I was able to built while instructing, I got the experience needed to apply to an airline in Colombia.

More...
Alvaro's Success Story
close

Dean alumnus Alvaro Londoño currently flies with Tampa Cargo. He says of his experience at Dean: "I want to take this opportunity to thank you for giving me the chance to build my experience and expand my knowledge in Dean International. Because of the flight time I was able to built flight instructing, I got the experience needed to apply to an airline in Colombia."

Ralph

Ralph

Every Aruban student of Dean International has made it into Tiara Air Aruba, that is very nice.

More...
Ralph's Success Story
close

"Next to me is my Co-Pilot, Elison. This picture was taken on our first flight together, which was almost exactly 5 years after I finished at Dean International. [...] Every Aruban student of Dean International has made it into Tiara Air Aruba. [...] The future looks bright here in Aruba."

Rohaan

Rohaan

The [..] staff will all work diligently to help you finish your certificates as safely and efficiently as possible.

More...
Rohaan's Success Story
close

After receiving very hard times from other flight schools [...], I came to Dean International where Robert Dean personally sat down with me and gave me a financial and chronological look into how much remained to finish my private pilot certificate. Through his hard efforts as an instructor and mentor, I was able to finish my private pilot certificate within one week.

Welcome to Dean International

In over two decades, Dean International has educated over 7,000 pilots from all over the world, including over 1,000 students from India alone. By offering a great training experience, a friendly service staff, an ample variety of aircraft, and by improving constantly, we have become one of the largest, most prestigious FAA 141-approved flight schools in North America. Located in Miami, Florida, USA, our flight school offers an ideal location for year-round, "learn to fly" weather, flight training. Dean International is not only well-equipped to provide services to professional trainees but also caters to General Aviation renters. Visit or contact our headquarters at Kendall-Tamiami Executive Airport located in Miami, FL today to learn more about us, or simply read more about our programs if you are an international student interested in joining our school.

Local Airport Information
TAF FOR KTMB (Issued: Thu, April 17th 2014 9:30 PM UTC)
TAF
      AMD KTMB 172129Z 1721/1818 08013G18KT P6SM VCSH SCT020 BKN050 BKN100
      FM180000 08009KT P6SM VCSH SCT025 SCT050 BKN150
      FM181500 13013KT P6SM SCT030 BKN050
     
METAR FOR KTMB (Issued: Fri, April 18th 2014 3:53 AM UTC):
KTMB 180353Z AUTO 10008KT 10SM BKN042 BKN050 24/22 A3009 RMK AO2 RAE28 SLP190 P0000 T02440222

This weather information is provided by the National Weather Service.
It is automatically refreshed every three minutes.
TAF FOR KHST (Issued: Fri, April 18th 2014 12:09 AM UTC)
TAF KHST 1800/1906 07012KT 9999 SCT020 SCT040 QNH3002INS
      BECMG 1813/1814 10015G22KT 9999 BKN140 QNH2998INS
      BECMG 1823/1824 13012KT 8000 -SHRA BKN020 QNH2995INS
      TEMPO 1901/1906 16015G22KT 6000 -TSRA BKN015CB TX29/1820Z TN21/1808Z
     
METAR FOR KHST (Issued: Fri, April 18th 2014 3:58 AM UTC):
KHST 180358Z AUTO 09011G16KT 10SM CLR 25/20 A3009 RMK AO2 RAB0310E0337DZB0337E0341 SLP193 P0001 T02470200 $

This weather information is provided by the National Weather Service.
It is automatically refreshed every three minutes.
TAF FOR KOPF (Issued: Thu, April 17th 2014 9:30 PM UTC)
TAF
      AMD KOPF 172127Z 1721/1818 09012KT P6SM VCSH SCT018 SCT029 BKN060
      FM180000 08009KT P6SM SCT025 BKN050 BKN100
      FM181400 13013KT P6SM SCT030 BKN050
     
METAR FOR KOPF (Issued: Fri, April 18th 2014 3:53 AM UTC):
KOPF 180353Z AUTO 08007KT 10SM FEW021 SCT049 BKN060 24/22 A3010 RMK AO2 RAB21E39 SLP193 P0007 T02390217

This weather information is provided by the National Weather Service.
It is automatically refreshed every three minutes.
TAF FOR KMIA (Issued: Fri, April 18th 2014 3:45 AM UTC)
TAF
      AMD KMIA 180239Z 1803/1824 08012G18KT P6SM VCSH SCT020 BKN050 BKN080
      FM181500 13014G20KT P6SM VCSH SCT025 BKN040
     
METAR FOR KMIA (Issued: Fri, April 18th 2014 3:53 AM UTC):
KMIA 180353Z 09012KT 10SM SCT020 BKN060 25/22 A3010 RMK AO2 RAB0254E11 SLP191 P0000 T02500217

This weather information is provided by the National Weather Service.
It is automatically refreshed every three minutes.
Design by Ariel Llizo
© Dean International Inc. 2012